Time;durP1;ratioP1;P1;durP2;ratioP2;P2;SDS_P1;SDS_P2;PMS_P1;PMS_P2;Temp;Humidity;BMP_temperature;BMP_pressure;BME280_temperature;BME280_humidity;BME280_pressure;Samples;Min_cycle;Max_cycle;Signal;HPM_P1;HPM_P2
2021/07/07 00:02:13;;;;;;;2.95;1.30;;;14.90;70.10;;;;;;5086379;28;20032;-50
2021/07/07 00:04:41;;;;;;;4.88;1.67;;;15.10;69.00;;;;;;5089636;28;20085;-47
2021/07/07 00:07:08;;;;;;;1.90;1.15;;;15.30;68.40;;;;;;5090084;28;20040;-50
2021/07/07 00:09:35;;;;;;;3.63;1.48;;;15.60;67.10;;;;;;5090585;28;20056;-54
2021/07/07 00:12:03;;;;;;;3.72;1.35;;;15.70;66.80;;;;;;5087053;28;20123;-54
2021/07/07 00:14:30;;;;;;;1.90;1.42;;;16.00;65.30;;;;;;5089996;28;20437;-57
2021/07/07 00:16:58;;;;;;;2.95;1.30;;;16.20;65.10;;;;;;5086689;28;20032;-52
2021/07/07 00:19:25;;;;;;;4.20;1.42;;;16.30;65.70;;;;;;5092363;28;20074;-50
2021/07/07 00:21:58;;;;;;;5.53;1.60;;;16.50;65.10;;;;;;5089824;28;20478;-56
2021/07/07 00:24:28;;;;;;;3.47;1.40;;;16.80;63.20;;;;;;5088262;28;20036;-55
2021/07/07 00:26:56;;;;;;;3.92;1.30;;;16.90;61.50;;;;;;5089198;28;20124;-55
2021/07/07 00:29:23;;;;;;;1.15;0.85;;;16.90;62.00;;;;;;5090334;28;20894;-52
2021/07/07 00:31:50;;;;;;;2.28;1.10;;;16.90;61.70;;;;;;5090031;28;20070;-54
2021/07/07 00:34:18;;;;;;;1.88;1.52;;;16.70;60.80;;;;;;5084912;28;20035;-49
2021/07/07 00:36:45;;;;;;;3.03;1.30;;;16.50;62.50;;;;;;5089036;28;20107;-53
2021/07/07 00:39:12;;;;;;;7.13;1.88;;;16.40;63.10;;;;;;5089983;28;20062;-57
2021/07/07 00:41:40;;;;;;;3.38;1.50;;;16.40;61.70;;;;;;5087638;28;20024;-56
2021/07/07 00:44:07;;;;;;;3.85;1.20;;;16.30;61.80;;;;;;5084503;28;20023;-55
2021/07/07 00:46:37;;;;;;;4.57;1.30;;;16.20;62.50;;;;;;5088528;28;20047;-53
2021/07/07 00:49:05;;;;;;;2.72;1.70;;;16.10;64.30;;;;;;5090394;28;20016;-54
2021/07/07 00:51:35;;;;;;;2.25;1.23;;;16.00;64.80;;;;;;5089112;28;20028;-53
2021/07/07 00:54:03;;;;;;;3.60;1.50;;;16.10;63.80;;;;;;5085240;28;20447;-58
2021/07/07 00:56:31;;;;;;;2.33;1.45;;;16.10;67.00;;;;;;5091311;28;20028;-57
2021/07/07 00:58:59;;;;;;;1.92;1.25;;;16.20;67.50;;;;;;5091174;28;20355;-56
2021/07/07 01:01:27;;;;;;;1.88;1.20;;;16.40;65.20;;;;;;5090397;28;20032;-57
2021/07/07 01:03:55;;;;;;;3.17;1.73;;;16.50;63.40;;;;;;5090619;28;20089;-59
2021/07/07 01:06:22;;;;;;;2.88;1.42;;;16.60;65.40;;;;;;5083207;28;20152;-55
2021/07/07 01:08:49;;;;;;;3.08;1.48;;;16.90;65.00;;;;;;5085347;28;20144;-56
2021/07/07 01:11:18;;;;;;;5.32;1.63;;;17.10;64.50;;;;;;5089483;28;20028;-54
2021/07/07 01:13:46;;;;;;;3.05;1.42;;;17.40;62.30;;;;;;5091434;28;20105;-57
2021/07/07 01:16:13;;;;;;;4.30;1.70;;;17.60;62.90;;;;;;5087988;28;20504;-57
2021/07/07 01:18:40;;;;;;;3.60;1.77;;;18.00;60.20;;;;;;5088857;28;20095;-55
2021/07/07 01:21:08;;;;;;;6.20;1.98;;;18.20;61.60;;;;;;5089317;28;20020;-50
2021/07/07 01:23:35;;;;;;;4.05;2.85;;;18.40;59.80;;;;;;5089279;28;20068;-55
2021/07/07 01:26:03;;;;;;;3.35;1.40;;;18.70;60.10;;;;;;5087946;28;20036;-53
2021/07/07 01:28:32;;;;;;;3.05;1.40;;;18.80;58.10;;;;;;5088539;28;20052;-53
2021/07/07 01:30:59;;;;;;;4.13;1.80;;;18.90;60.30;;;;;;5088657;28;20393;-57
2021/07/07 01:33:27;;;;;;;2.00;1.27;;;19.10;58.60;;;;;;5086846;28;20039;-56
2021/07/07 01:35:54;;;;;;;4.20;1.42;;;19.10;59.00;;;;;;5084992;28;20112;-59
2021/07/07 01:38:21;;;;;;;2.25;1.23;;;19.40;58.30;;;;;;5086310;28;20031;-56
2021/07/07 01:40:49;;;;;;;7.45;1.50;;;19.60;57.80;;;;;;5088023;28;20090;-52
2021/07/07 01:43:17;;;;;;;6.57;1.83;;;19.80;55.90;;;;;;5089183;28;20107;-54
2021/07/07 01:45:44;;;;;;;2.25;1.35;;;19.90;56.00;;;;;;5082812;28;20559;-57
2021/07/07 01:48:12;;;;;;;5.65;1.52;;;19.90;56.80;;;;;;5087998;28;20040;-52
2021/07/07 01:50:39;;;;;;;3.20;1.27;;;20.00;56.60;;;;;;5088985;28;20032;-52
2021/07/07 01:53:06;;;;;;;5.43;1.55;;;20.20;55.10;;;;;;5088199;28;20028;-55
2021/07/07 01:55:34;;;;;;;4.75;1.40;;;20.30;55.80;;;;;;5083780;28;20095;-53
2021/07/07 01:58:01;;;;;;;5.97;1.20;;;20.40;55.90;;;;;;5087966;28;20036;-54
2021/07/07 02:00:32;;;;;;;4.72;1.38;;;20.50;54.90;;;;;;5088908;28;20024;-55
2021/07/07 02:03:00;;;;;;;5.55;1.55;;;20.60;54.50;;;;;;5087442;28;20032;-57
2021/07/07 02:05:33;;;;;;;9.65;1.77;;;20.70;53.40;;;;;;5083183;28;20074;-59
2021/07/07 02:08:04;;;;;;;4.78;1.05;;;20.80;54.10;;;;;;5087938;28;20023;-57
2021/07/07 02:10:32;;;;;;;6.05;1.42;;;20.80;54.80;;;;;;5088742;28;20032;-61
2021/07/07 02:12:59;;;;;;;4.65;1.17;;;20.70;54.30;;;;;;5088175;28;20043;-55
2021/07/07 02:15:32;;;;;;;1.42;1.00;;;21.00;53.70;;;;;;5083112;28;20814;-58
2021/07/07 02:18:00;;;;;;;2.05;1.23;;;21.20;52.80;;;;;;5087293;28;20042;-56
2021/07/07 02:20:31;;;;;;;5.07;1.13;;;21.30;53.50;;;;;;5088401;28;20069;-56
2021/07/07 02:22:58;;;;;;;5.57;1.80;;;21.30;53.80;;;;;;5087885;28;20024;-55
2021/07/07 02:25:28;;;;;;;2.53;1.13;;;21.40;53.00;;;;;;5080576;28;20058;-61
2021/07/07 02:27:57;;;;;;;3.45;1.27;;;21.50;52.90;;;;;;5083278;28;20056;-56
2021/07/07 02:30:28;;;;;;;5.70;1.58;;;21.60;53.00;;;;;;5087152;28;20068;-55
2021/07/07 02:32:57;;;;;;;2.13;1.05;;;21.60;52.70;;;;;;5086893;28;20030;-59
2021/07/07 02:35:27;;;;;;;3.08;1.30;;;21.50;53.40;;;;;;5081720;28;20028;-53
2021/07/07 02:37:56;;;;;;;3.97;1.20;;;21.50;52.10;;;;;;5086614;28;20042;-58
2021/07/07 02:40:30;;;;;;;3.03;1.20;;;21.60;52.80;;;;;;5087347;28;20132;-56
2021/07/07 02:42:58;;;;;;;3.20;1.20;;;21.50;53.10;;;;;;5086685;28;20039;-56
2021/07/07 02:45:27;;;;;;;2.47;1.10;;;21.40;52.50;;;;;;5080203;28;20032;-56
2021/07/07 02:47:55;;;;;;;6.80;0.98;;;21.40;53.30;;;;;;5086030;28;20036;-62
2021/07/07 02:50:23;;;;;;;2.03;1.20;;;21.40;54.00;;;;;;5086996;28;20139;-56
2021/07/07 02:52:53;;;;;;;1.55;0.80;;;21.40;54.70;;;;;;5086796;28;20032;-57
2021/07/07 02:55:22;;;;;;;1.45;0.70;;;21.40;54.70;;;;;;5082141;28;20031;-53
2021/07/07 02:57:56;;;;;;;2.97;1.20;;;21.70;53.30;;;;;;5083405;28;20491;-56
2021/07/07 03:00:29;;;;;;;2.58;1.02;;;21.60;54.20;;;;;;5086959;28;20032;-57
2021/07/07 03:02:58;;;;;;;1.30;0.77;;;21.40;54.70;;;;;;5087142;28;20805;-56
2021/07/07 03:05:27;;;;;;;2.40;1.10;;;21.60;53.30;;;;;;5081660;28;20040;-61
2021/07/07 03:07:54;;;;;;;4.30;1.15;;;21.50;54.70;;;;;;5086076;28;20031;-60
2021/07/07 03:10:22;;;;;;;3.75;1.20;;;21.80;53.30;;;;;;5086927;28;20020;-59
2021/07/07 03:12:50;;;;;;;7.20;1.00;;;21.90;52.50;;;;;;5086856;28;20146;-58
2021/07/07 03:15:17;;;;;;;3.13;1.38;;;21.90;53.70;;;;;;5080865;28;20390;-59
2021/07/07 03:17:45;;;;;;;3.05;0.95;;;22.00;53.70;;;;;;5085351;28;20391;-57
2021/07/07 03:20:13;;;;;;;2.17;1.00;;;21.90;54.10;;;;;;5087151;28;20052;-58
2021/07/07 03:22:40;;;;;;;3.47;1.08;;;21.90;53.90;;;;;;5086787;28;20109;-58
2021/07/07 03:25:09;;;;;;;2.38;0.90;;;21.90;53.90;;;;;;5084260;28;20394;-53
2021/07/07 03:27:36;;;;;;;3.47;1.20;;;21.80;51.70;;;;;;4925875;28;4468210;-56
2021/07/07 03:30:06;;;;;;;2.83;1.13;;;21.60;54.70;;;;;;5087851;28;20051;-55
2021/07/07 03:32:34;;;;;;;1.77;0.98;;;21.40;55.30;;;;;;5087666;28;20119;-62
2021/07/07 03:35:05;;;;;;;6.38;1.75;;;21.60;54.10;;;;;;5086469;28;20032;-62
2021/07/07 03:37:33;;;;;;;5.05;1.27;;;21.50;54.40;;;;;;5083889;28;20063;-54
2021/07/07 03:40:00;;;;;;;1.40;1.05;;;21.20;55.20;;;;;;5086763;28;20443;-57
2021/07/07 03:42:28;;;;;;;2.17;1.30;;;21.10;55.50;;;;;;5087479;28;20115;-57
2021/07/07 03:44:55;;;;;;;6.13;1.50;;;20.90;54.60;;;;;;5087147;28;20085;-60
2021/07/07 03:47:22;;;;;;;2.80;1.25;;;20.60;55.80;;;;;;5081029;28;20044;-61
2021/07/07 03:49:50;;;;;;;2.63;1.40;;;20.30;56.70;;;;;;5087208;28;20032;-54
2021/07/07 03:52:17;;;;;;;4.30;1.20;;;20.00;56.80;;;;;;5087635;28;20048;-53
2021/07/07 03:54:45;;;;;;;2.92;0.93;;;19.90;57.20;;;;;;5086942;28;20020;-58
2021/07/07 03:57:12;;;;;;;3.95;2.22;;;19.70;59.90;;;;;;5081607;28;20055;-55
2021/07/07 03:59:41;;;;;;;6.82;1.50;;;19.60;58.60;;;;;;5086377;28;20478;-53
2021/07/07 04:02:08;;;;;;;3.38;1.20;;;19.40;59.00;;;;;;5088169;28;20032;-58
2021/07/07 04:04:37;;;;;;;2.55;1.10;;;19.20;60.90;;;;;;5087496;28;20056;-59
2021/07/07 04:07:05;;;;;;;1.23;0.90;;;19.00;60.30;;;;;;5081975;28;20039;-55
2021/07/07 04:09:33;;;;;;;2.83;1.00;;;18.80;61.30;;;;;;5086430;28;20106;-59
2021/07/07 04:12:01;;;;;;;1.95;1.08;;;18.70;62.70;;;;;;5086957;28;20024;-60
2021/07/07 04:14:30;;;;;;;4.60;1.33;;;18.60;63.90;;;;;;5087124;28;20064;-53
2021/07/07 04:16:58;;;;;;;2.05;0.93;;;18.60;65.10;;;;;;5081808;28;20048;-52
2021/07/07 04:19:27;;;;;;;2.70;1.13;;;18.80;65.60;;;;;;5086400;28;20024;-48
2021/07/07 04:21:55;;;;;;;3.30;1.00;;;18.80;65.30;;;;;;5086188;28;20028;-53
2021/07/07 04:24:26;;;;;;;1.05;0.90;;;19.00;62.00;;;;;;5087416;28;20058;-54
2021/07/07 04:27:09;;;;;;;3.40;1.40;;;19.20;63.20;;;;;;5082505;28;20048;-56
2021/07/07 04:29:36;;;;;;;1.17;0.80;;;19.50;63.00;;;;;;5087849;28;20032;-54
2021/07/07 04:32:06;;;;;;;1.00;0.90;;;19.70;62.90;;;;;;5089735;28;20157;-57
2021/07/07 04:34:34;;;;;;;1.77;0.88;;;19.80;61.30;;;;;;5090444;28;20028;-53
2021/07/07 04:37:04;;;;;;;4.10;1.50;;;19.70;59.20;;;;;;5085130;28;20032;-49
2021/07/07 04:39:48;;;;;;;3.47;1.30;;;19.70;60.70;;;;;;5089321;28;20036;-53
2021/07/07 04:42:41;;;;;;;1.88;0.77;;;19.90;61.40;;;;;;5090864;28;20112;-58
2021/07/07 04:45:42;;;;;;;2.00;1.10;;;20.10;58.50;;;;;;5087442;28;20028;-51
2021/07/07 04:48:12;;;;;;;1.33;1.00;;;20.20;60.70;;;;;;5087968;28;20071;-55
2021/07/07 04:50:50;;;;;;;8.82;2.03;;;20.20;60.60;;;;;;5091512;28;20024;-56
2021/07/07 04:53:18;;;;;;;2.38;0.93;;;20.30;57.90;;;;;;5090288;28;20390;-58
2021/07/07 04:55:45;;;;;;;2.40;1.10;;;20.10;60.10;;;;;;5090944;28;20666;-60
2021/07/07 04:58:13;;;;;;;4.72;0.90;;;20.10;61.40;;;;;;5091330;28;20061;-59
2021/07/07 05:00:40;;;;;;;3.00;0.80;;;20.10;60.40;;;;;;5089560;28;20059;-53
2021/07/07 05:03:07;;;;;;;3.85;0.90;;;20.20;60.90;;;;;;5088963;28;20482;-54
2021/07/07 05:05:35;;;;;;;1.85;0.93;;;20.30;58.60;;;;;;5090199;28;20039;-53
2021/07/07 05:08:03;;;;;;;3.00;1.10;;;20.30;60.20;;;;;;5088474;28;20031;-56
2021/07/07 05:10:32;;;;;;;1.45;0.82;;;20.30;59.80;;;;;;5091594;28;20378;-56
2021/07/07 05:13:03;;;;;;;2.85;1.20;;;20.40;59.50;;;;;;5090682;28;20031;-56
2021/07/07 05:15:30;;;;;;;2.57;0.83;;;20.30;59.90;;;;;;5091277;28;20024;-59
2021/07/07 05:17:58;;;;;;;2.38;0.90;;;20.40;57.30;;;;;;5090494;28;20297;-57
2021/07/07 05:20:25;;;;;;;1.20;0.93;;;20.40;59.00;;;;;;5090446;28;20060;-57
2021/07/07 05:22:52;;;;;;;5.07;1.33;;;20.30;58.20;;;;;;5090720;28;20040;-57
2021/07/07 05:25:21;;;;;;;2.42;1.02;;;20.20;58.10;;;;;;5090858;28;20441;-56
2021/07/07 05:27:48;;;;;;;2.88;1.40;;;20.10;58.80;;;;;;5090280;28;20063;-56
2021/07/07 05:30:20;;;;;;;1.25;0.60;;;19.90;58.10;;;;;;5090559;28;20063;-54
2021/07/07 05:32:47;;;;;;;1.75;1.10;;;19.90;60.50;;;;;;5090573;28;20055;-54
2021/07/07 05:35:15;;;;;;;1.85;0.98;;;19.70;61.10;;;;;;5090242;28;20482;-55
2021/07/07 05:37:42;;;;;;;0.70;0.68;;;19.60;61.10;;;;;;5089244;28;20028;-56
2021/07/07 05:40:10;;;;;;;1.85;0.80;;;19.60;61.20;;;;;;5090599;28;20419;-56
2021/07/07 05:42:38;;;;;;;1.33;0.68;;;19.60;60.10;;;;;;5090610;28;20498;-58
2021/07/07 05:45:06;;;;;;;2.00;0.90;;;19.50;61.30;;;;;;5090573;28;20043;-59
2021/07/07 05:47:33;;;;;;;1.65;0.93;;;19.40;59.10;;;;;;5090054;28;20343;-58
2021/07/07 05:50:01;;;;;;;2.03;1.00;;;19.40;61.00;;;;;;5090480;28;20020;-59
2021/07/07 05:52:29;;;;;;;3.63;0.93;;;19.30;61.20;;;;;;5090177;28;20093;-57
2021/07/07 05:54:57;;;;;;;2.30;0.93;;;19.00;62.10;;;;;;5081196;28;20130;-61
2021/07/07 05:57:37;;;;;;;1.35;0.70;;;18.90;61.90;;;;;;5087677;28;20032;-64
2021/07/07 06:00:17;;;;;;;1.73;0.80;;;18.70;62.10;;;;;;5090871;28;20127;-57
2021/07/07 06:02:47;;;;;;;2.85;0.70;;;18.60;62.90;;;;;;5088598;28;20024;-54
2021/07/07 06:05:15;;;;;;;2.05;0.80;;;18.50;61.80;;;;;;5083912;28;20032;-52
2021/07/07 06:07:43;;;;;;;1.90;1.17;;;18.30;64.10;;;;;;5088224;28;20040;-52
2021/07/07 06:10:13;;;;;;;2.03;1.15;;;18.10;65.10;;;;;;5088639;28;20034;-55
2021/07/07 06:12:42;;;;;;;2.17;1.10;;;17.90;65.30;;;;;;5089266;28;20042;-60
2021/07/07 06:15:11;;;;;;;1.35;0.60;;;17.90;65.60;;;;;;5084919;28;20558;-61
2021/07/07 06:17:39;;;;;;;1.33;0.75;;;17.80;66.90;;;;;;5088455;28;20043;-61
2021/07/07 06:20:09;;;;;;;1.83;0.90;;;17.70;67.60;;;;;;5088702;28;20475;-61
2021/07/07 06:22:37;;;;;;;1.38;0.80;;;17.50;68.10;;;;;;5088368;28;20032;-64
2021/07/07 06:25:07;;;;;;;1.88;0.80;;;17.40;68.70;;;;;;5083343;28;20039;-60
2021/07/07 06:27:39;;;;;;;2.30;0.73;;;17.40;68.80;;;;;;5086885;28;20467;-56
2021/07/07 06:30:12;;;;;;;1.50;1.08;;;17.30;69.10;;;;;;5088331;28;20051;-60
2021/07/07 06:32:41;;;;;;;1.30;0.75;;;17.20;69.00;;;;;;5088247;28;20063;-60
2021/07/07 06:35:09;;;;;;;1.17;0.77;;;17.20;70.20;;;;;;5082565;28;20540;-61
2021/07/07 06:37:36;;;;;;;2.30;0.82;;;17.10;70.40;;;;;;5087990;28;20028;-53
2021/07/07 06:40:05;;;;;;;2.75;0.77;;;17.00;70.60;;;;;;5086460;28;20386;-52
2021/07/07 06:42:33;;;;;;;0.95;0.70;;;16.90;70.50;;;;;;5090268;28;20481;-57
2021/07/07 06:45:00;;;;;;;1.92;0.90;;;16.90;71.40;;;;;;5083628;28;20077;-56
2021/07/07 06:47:29;;;;;;;2.60;1.00;;;16.80;71.70;;;;;;5089270;28;20114;-58
2021/07/07 06:49:56;;;;;;;3.33;0.90;;;16.70;71.60;;;;;;5088783;28;20385;-59
2021/07/07 06:52:23;;;;;;;1.33;0.88;;;16.60;72.20;;;;;;5088959;28;20782;-58
2021/07/07 06:54:51;;;;;;;1.70;0.80;;;16.50;72.50;;;;;;5089645;28;20483;-52
2021/07/07 06:57:18;;;;;;;0.90;0.90;;;16.50;72.90;;;;;;5089386;28;20128;-61
2021/07/07 06:59:46;;;;;;;1.80;1.00;;;16.50;72.90;;;;;;5088642;28;20399;-56
2021/07/07 07:02:13;;;;;;;1.73;0.90;;;16.40;73.00;;;;;;5088775;28;20039;-54
2021/07/07 07:04:44;;;;;;;2.38;0.95;;;16.40;73.30;;;;;;5089089;28;20077;-59
2021/07/07 07:07:11;;;;;;;1.48;1.20;;;16.40;73.10;;;;;;5088230;28;20047;-54
2021/07/07 07:09:39;;;;;;;2.78;0.77;;;16.40;73.60;;;;;;5088959;28;20066;-57
2021/07/07 07:12:06;;;;;;;1.40;0.93;;;16.30;73.50;;;;;;5088845;28;20035;-55
2021/07/07 07:14:34;;;;;;;2.10;0.95;;;16.20;73.80;;;;;;5088537;28;20028;-58
2021/07/07 07:17:01;;;;;;;4.30;1.35;;;16.20;74.10;;;;;;5088976;28;20704;-55
2021/07/07 07:19:28;;;;;;;7.13;1.27;;;16.20;74.30;;;;;;5088868;28;20016;-57
2021/07/07 07:21:56;;;;;;;6.30;1.75;;;16.10;74.20;;;;;;5088438;28;20028;-56
2021/07/07 07:24:23;;;;;;;4.13;1.10;;;16.10;74.30;;;;;;5088714;28;20036;-56
2021/07/07 07:26:50;;;;;;;1.88;1.00;;;16.10;74.90;;;;;;5088040;28;20570;-55
2021/07/07 07:29:17;;;;;;;2.60;1.00;;;16.00;74.90;;;;;;5088019;28;20040;-54
2021/07/07 07:31:45;;;;;;;3.13;1.35;;;16.00;75.20;;;;;;5087824;28;20054;-53
2021/07/07 07:34:13;;;;;;;5.10;1.27;;;16.00;75.10;;;;;;5088535;28;20135;-52
2021/07/07 07:36:40;;;;;;;6.13;1.15;;;16.00;75.60;;;;;;5088502;28;20081;-55
2021/07/07 07:39:23;;;;;;;7.00;0.90;;;16.00;75.90;;;;;;5088614;28;20032;-60
2021/07/07 07:41:51;;;;;;;1.38;1.00;;;16.00;75.80;;;;;;5088627;28;20110;-54
2021/07/07 07:44:22;;;;;;;7.45;1.60;;;15.90;75.80;;;;;;5088131;28;20478;-57
2021/07/07 07:46:50;;;;;;;2.90;1.58;;;15.90;75.90;;;;;;5088456;28;20047;-57
2021/07/07 07:49:18;;;;;;;3.72;1.40;;;15.90;76.00;;;;;;5087112;28;20020;-57
2021/07/07 07:51:45;;;;;;;2.10;1.30;;;15.90;76.10;;;;;;5087550;28;20561;-61
2021/07/07 07:54:12;;;;;;;2.80;1.20;;;15.90;77.00;;;;;;5087454;28;20040;-55
2021/07/07 07:56:39;;;;;;;2.90;1.83;;;15.90;76.50;;;;;;5088757;28;20032;-52
2021/07/07 07:59:07;;;;;;;3.55;1.58;;;15.90;76.10;;;;;;5088414;28;20771;-58
2021/07/07 08:01:35;;;;;;;5.57;2.00;;;15.90;75.70;;;;;;5088162;28;20028;-56
2021/07/07 08:04:02;;;;;;;3.17;1.83;;;15.80;75.50;;;;;;5092318;28;20017;-56
2021/07/07 08:06:31;;;;;;;3.15;1.70;;;15.90;75.40;;;;;;5092123;28;20047;-58
2021/07/07 08:09:03;;;;;;;2.35;1.75;;;15.80;75.50;;;;;;5092384;28;20437;-54
2021/07/07 08:11:30;;;;;;;5.07;2.05;;;15.80;75.60;;;;;;5091744;28;20032;-56
2021/07/07 08:13:58;;;;;;;3.42;2.03;;;15.80;75.40;;;;;;5092494;28;20060;-59
2021/07/07 08:16:25;;;;;;;6.55;1.90;;;15.80;75.60;;;;;;5091253;28;20032;-53
2021/07/07 08:18:53;;;;;;;5.97;1.92;;;15.70;75.40;;;;;;5091919;28;20078;-54
2021/07/07 08:21:23;;;;;;;1.98;1.75;;;15.70;75.40;;;;;;5092097;28;20039;-52
2021/07/07 08:23:50;;;;;;;3.47;1.90;;;15.70;75.60;;;;;;5091946;28;20034;-56
2021/07/07 08:26:18;;;;;;;3.72;1.60;;;15.70;75.60;;;;;;5091462;28;20505;-53
2021/07/07 08:28:46;;;;;;;4.15;1.80;;;15.60;75.50;;;;;;5092031;28;20079;-55
2021/07/07 08:31:13;;;;;;;6.38;1.88;;;15.60;75.40;;;;;;5091680;28;20028;-55
2021/07/07 08:33:41;;;;;;;3.92;2.28;;;15.60;75.50;;;;;;5092150;28;20081;-58
2021/07/07 08:36:08;;;;;;;4.28;2.30;;;15.60;75.30;;;;;;5091689;28;20036;-49
2021/07/07 08:38:35;;;;;;;3.13;2.25;;;15.50;75.50;;;;;;5091753;28;20819;-53
2021/07/07 08:41:03;;;;;;;5.05;2.95;;;15.50;75.60;;;;;;5091926;28;20063;-54
2021/07/07 08:43:30;;;;;;;3.83;2.45;;;15.50;75.60;;;;;;5091729;28;20368;-56
2021/07/07 08:45:59;;;;;;;4.22;2.03;;;15.40;75.50;;;;;;5087136;28;20036;-54
2021/07/07 08:48:26;;;;;;;4.55;2.45;;;15.40;75.60;;;;;;5091662;28;20391;-56
2021/07/07 08:50:58;;;;;;;4.00;2.45;;;15.40;75.70;;;;;;5091571;28;20024;-55
2021/07/07 08:53:26;;;;;;;3.97;2.10;;;15.40;76.00;;;;;;5091413;28;20032;-54
2021/07/07 08:55:54;;;;;;;5.50;2.95;;;15.30;75.90;;;;;;5091266;28;20052;-54
2021/07/07 08:58:22;;;;;;;3.03;2.00;;;15.30;75.90;;;;;;5091229;28;20427;-53
2021/07/07 09:00:51;;;;;;;6.70;3.15;;;15.30;75.90;;;;;;5090724;28;20479;-54
2021/07/07 09:03:19;;;;;;;4.05;2.40;;;15.20;75.90;;;;;;5090789;28;20035;-56
2021/07/07 09:05:51;;;;;;;5.68;3.10;;;15.20;76.00;;;;;;5091224;28;20032;-55
2021/07/07 09:08:30;;;;;;;4.10;2.65;;;15.20;76.00;;;;;;5090711;28;20106;-58
2021/07/07 09:11:19;;;;;;;9.00;4.03;;;15.20;76.10;;;;;;5090091;28;20382;-58
2021/07/07 09:13:48;;;;;;;5.45;3.75;;;15.20;76.00;;;;;;5079763;28;20070;-59
2021/07/07 09:16:18;;;;;;;7.75;5.10;;;15.10;76.00;;;;;;5091182;28;20023;-52
2021/07/07 09:18:48;;;;;;;10.38;5.50;;;15.10;76.00;;;;;;5091134;28;20060;-54
2021/07/07 09:21:30;;;;;;;6.90;5.55;;;15.10;76.00;;;;;;5090743;28;20020;-57
2021/07/07 09:23:59;;;;;;;8.50;5.93;;;15.10;76.00;;;;;;5090855;28;20055;-56
2021/07/07 09:26:32;;;;;;;8.93;6.50;;;15.10;76.00;;;;;;5090785;28;20036;-58
2021/07/07 09:29:01;;;;;;;8.65;6.72;;;15.10;75.90;;;;;;5090946;28;20056;-57
2021/07/07 09:31:34;;;;;;;13.48;6.85;;;15.00;75.90;;;;;;5090880;28;20034;-53
2021/07/07 09:34:18;;;;;;;8.60;6.70;;;15.00;76.00;;;;;;5090985;28;20124;-54
2021/07/07 09:36:50;;;;;;;9.38;7.00;;;15.00;76.00;;;;;;5090714;28;20017;-54
2021/07/07 09:39:20;;;;;;;9.23;6.90;;;14.90;76.20;;;;;;5090937;28;20107;-56
2021/07/07 09:41:50;;;;;;;10.88;6.97;;;14.90;76.10;;;;;;5090777;28;20031;-57
2021/07/07 09:44:19;;;;;;;9.75;7.53;;;14.90;76.10;;;;;;5091047;28;20032;-57
2021/07/07 09:46:46;;;;;;;9.35;6.88;;;14.90;76.30;;;;;;5090487;28;20039;-55
2021/07/07 09:49:15;;;;;;;9.52;7.07;;;14.90;76.40;;;;;;5090510;28;20081;-56
2021/07/07 09:51:49;;;;;;;9.40;7.47;;;14.80;76.60;;;;;;5090507;28;20401;-56
2021/07/07 09:54:21;;;;;;;12.73;7.68;;;14.90;76.60;;;;;;5090555;28;20031;-56
2021/07/07 09:56:48;;;;;;;13.30;8.90;;;14.80;76.90;;;;;;5090665;28;20484;-57
2021/07/07 09:59:16;;;;;;;12.55;7.85;;;14.80;76.80;;;;;;5090394;28;20039;-56
2021/07/07 10:01:46;;;;;;;15.57;9.13;;;14.80;77.10;;;;;;5090187;28;20032;-59
2021/07/07 10:04:18;;;;;;;16.13;8.85;;;14.80;78.60;;;;;;5090131;28;20071;-56
2021/07/07 10:06:46;;;;;;;20.03;9.63;;;14.80;78.20;;;;;;5089896;28;20067;-55
2021/07/07 10:09:15;;;;;;;19.70;9.20;;;14.90;77.90;;;;;;5090061;28;20139;-57
2021/07/07 10:11:43;;;;;;;20.33;10.23;;;14.80;78.30;;;;;;5090267;28;20036;-54
2021/07/07 10:14:12;;;;;;;18.92;10.45;;;14.80;78.60;;;;;;5088794;28;20051;-58
2021/07/07 10:16:40;;;;;;;23.25;10.35;;;14.80;78.70;;;;;;5088261;28;20490;-55
2021/07/07 10:19:08;;;;;;;23.42;11.13;;;14.90;78.60;;;;;;5090416;28;20024;-60
2021/07/07 10:21:35;;;;;;;19.92;10.82;;;14.90;78.90;;;;;;5090086;28;20050;-56
2021/07/07 10:24:03;;;;;;;23.63;12.25;;;14.80;78.90;;;;;;5089274;28;20116;-54
2021/07/07 10:26:31;;;;;;;23.55;11.43;;;14.80;78.90;;;;;;5089854;28;20031;-57
2021/07/07 10:28:59;;;;;;;20.67;11.93;;;14.80;78.90;;;;;;5089253;28;20063;-53
2021/07/07 10:31:53;;;;;;;24.80;11.82;;;14.80;78.90;;;;;;5090208;28;20024;-55
2021/07/07 10:34:23;;;;;;;21.85;12.30;;;14.80;78.90;;;;;;5089931;28;20058;-54
2021/07/07 10:36:52;;;;;;;24.35;11.63;;;14.70;78.90;;;;;;5090065;28;20435;-56
2021/07/07 10:39:20;;;;;;;27.95;11.90;;;14.70;79.00;;;;;;5088798;28;20024;-54
2021/07/07 10:41:49;;;;;;;24.38;12.05;;;14.70;79.00;;;;;;5090288;28;20028;-52
2021/07/07 10:44:27;;;;;;;22.85;12.50;;;14.70;79.00;;;;;;5090541;28;20173;-58
2021/07/07 10:47:00;;;;;;;26.05;12.40;;;14.70;78.90;;;;;;5090087;28;20482;-56
2021/07/07 10:49:50;;;;;;;24.42;11.32;;;14.60;78.70;;;;;;5088225;28;20031;-56
2021/07/07 10:52:32;;;;;;;25.05;13.25;;;14.60;78.80;;;;;;5090145;28;20031;-59
2021/07/07 10:55:04;;;;;;;24.35;12.23;;;14.60;78.70;;;;;;5089044;28;20398;-59
2021/07/07 10:57:36;;;;;;;22.38;12.00;;;14.60;78.80;;;;;;5088807;28;20372;-58
2021/07/07 11:00:38;;;;;;;20.67;11.80;;;14.50;79.40;;;;;;5080339;28;20028;-54
2021/07/07 11:03:41;;;;;;;24.40;12.75;;;14.50;79.20;;;;;;5086605;28;20044;-54
2021/07/07 11:06:40;;;;;;;22.20;12.43;;;14.50;79.10;;;;;;5086766;28;20043;-55
2021/07/07 11:09:25;;;;;;;23.75;11.85;;;14.50;79.00;;;;;;5075739;28;20032;-57
2021/07/07 11:11:54;;;;;;;24.63;12.07;;;14.50;79.70;;;;;;5085274;28;20063;-50
2021/07/07 11:14:28;;;;;;;23.90;12.13;;;14.40;78.90;;;;;;5085238;28;20123;-53
2021/07/07 11:17:13;;;;;;;24.17;12.30;;;14.40;78.90;;;;;;5086740;28;20561;-52
2021/07/07 11:19:45;;;;;;;24.15;12.63;;;14.40;78.80;;;;;;5083954;28;20024;-54
2021/07/07 11:22:15;;;;;;;23.00;11.43;;;14.40;78.70;;;;;;5085377;28;20035;-57
2021/07/07 11:24:53;;;;;;;25.02;12.40;;;14.40;78.60;;;;;;5084423;28;20093;-59
2021/07/07 11:27:22;;;;;;;21.75;12.23;;;14.40;78.40;;;;;;5085423;28;20066;-59
2021/07/07 11:29:53;;;;;;;23.00;13.00;;;14.40;78.40;;;;;;5085181;28;20145;-56
2021/07/07 11:32:35;;;;;;;19.73;11.65;;;14.40;78.10;;;;;;5087640;28;20046;-57
2021/07/07 11:35:09;;;;;;;20.15;11.18;;;14.40;78.20;;;;;;5083127;28;20477;-57
2021/07/07 11:37:37;;;;;;;23.88;12.18;;;14.30;78.10;;;;;;5091443;28;20107;-56
2021/07/07 11:40:13;;;;;;;19.83;11.00;;;14.30;78.20;;;;;;5091083;28;20034;-59
2021/07/07 11:43:00;;;;;;;19.58;11.07;;;14.30;78.20;;;;;;5088982;28;20023;-56
2021/07/07 11:45:32;;;;;;;21.50;11.23;;;14.30;78.20;;;;;;5085733;28;20166;-52
2021/07/07 11:48:11;;;;;;;26.63;12.18;;;14.30;78.10;;;;;;5091648;28;20398;-52
2021/07/07 11:50:43;;;;;;;21.05;11.73;;;14.30;78.20;;;;;;5090960;28;20302;-54
2021/07/07 11:53:16;;;;;;;18.67;11.48;;;14.30;78.00;;;;;;5088788;28;20076;-59
2021/07/07 11:55:44;;;;;;;21.58;11.73;;;14.20;77.90;;;;;;5083702;28;20031;-59
2021/07/07 11:58:17;;;;;;;23.48;11.77;;;14.20;78.00;;;;;;5090265;28;20794;-50
2021/07/07 12:00:45;;;;;;;16.88;10.63;;;14.20;77.80;;;;;;5090386;28;20030;-56
2021/07/07 12:03:14;;;;;;;18.02;11.15;;;14.20;77.80;;;;;;5092058;28;20067;-56
2021/07/07 12:05:49;;;;;;;20.38;11.35;;;14.20;77.80;;;;;;5085911;28;20051;-51
2021/07/07 12:08:20;;;;;;;15.23;11.07;;;14.20;77.80;;;;;;5088724;28;20032;-58
2021/07/07 12:10:49;;;;;;;16.55;11.57;;;14.20;77.80;;;;;;5091001;28;20016;-54
2021/07/07 12:13:25;;;;;;;16.50;10.35;;;14.10;77.80;;;;;;5091721;28;20060;-59
2021/07/07 12:15:53;;;;;;;15.35;10.10;;;14.20;77.80;;;;;;5083879;28;20112;-51
2021/07/07 12:18:28;;;;;;;20.08;11.20;;;14.10;77.70;;;;;;5091421;28;20036;-54
2021/07/07 12:20:56;;;;;;;17.85;10.77;;;14.10;77.70;;;;;;5090245;28;20111;-50
2021/07/07 12:23:24;;;;;;;17.75;10.82;;;14.10;77.60;;;;;;5088701;28;20031;-57
2021/07/07 12:26:04;;;;;;;16.65;10.30;;;14.10;77.60;;;;;;5081574;28;20482;-52
2021/07/07 12:28:31;;;;;;;14.55;10.05;;;14.10;77.50;;;;;;5089611;28;20048;-56
2021/07/07 12:30:59;;;;;;;15.57;10.07;;;14.10;77.60;;;;;;5092189;28;20021;-58
2021/07/07 12:33:31;;;;;;;16.17;10.23;;;14.10;77.50;;;;;;5092379;28;20028;-55
2021/07/07 12:35:59;;;;;;;18.50;11.13;;;14.10;77.60;;;;;;5088052;28;20028;-53
2021/07/07 12:38:26;;;;;;;16.75;10.63;;;14.10;77.50;;;;;;5091773;28;20279;-57
2021/07/07 12:40:58;;;;;;;21.35;10.65;;;14.00;77.60;;;;;;5092224;28;20470;-50
2021/07/07 12:43:28;;;;;;;15.98;10.10;;;14.00;77.80;;;;;;5092156;28;20099;-50
2021/07/07 12:46:07;;;;;;;17.10;10.80;;;14.00;77.80;;;;;;5091660;28;20043;-51
2021/07/07 12:48:55;;;;;;;18.65;11.88;;;14.00;77.80;;;;;;5072237;28;20043;-53
2021/07/07 12:51:30;;;;;;;17.13;10.60;;;13.90;77.70;;;;;;5092125;28;20028;-54
2021/07/07 12:53:58;;;;;;;18.45;10.43;;;13.90;77.80;;;;;;5090281;28;20028;-57
2021/07/07 12:56:26;;;;;;;17.83;10.77;;;13.90;77.90;;;;;;5091641;28;20032;-55
2021/07/07 12:59:12;;;;;;;14.85;10.60;;;13.80;78.00;;;;;;5090275;28;20028;-57